createdAt,value
2023-04-01T00:00:02.586Z,80.94
2023-04-01T00:01:07.205Z,80.97
2023-04-01T00:01:40.746Z,80.96
2023-04-01T00:02:14.339Z,80.90
2023-04-01T00:02:52.477Z,81.07
2023-04-01T00:03:28.525Z,80.89
2023-04-01T00:04:03.460Z,80.67
2023-04-01T00:04:37.640Z,80.71
2023-04-01T00:05:12.878Z,81.00
2023-04-01T00:05:47.302Z,81.07
2023-04-01T00:06:21.104Z,80.58
2023-04-01T00:06:54.829Z,80.17
2023-04-01T00:07:30.823Z,80.55
2023-04-01T00:08:04.727Z,80.61
2023-04-01T00:08:38.736Z,80.62
2023-04-01T00:09:12.322Z,80.56
2023-04-01T00:09:45.967Z,80.68
2023-04-01T00:10:20.082Z,80.65
2023-04-01T00:10:54.462Z,80.44
2023-04-01T00:11:28.916Z,80.61
2023-04-01T00:12:02.603Z,80.99
2023-04-01T00:12:36.646Z,80.94
2023-04-01T00:13:10.883Z,80.97
2023-04-01T00:13:47.127Z,81.04
2023-04-01T00:14:24.313Z,81.02
2023-04-01T00:14:58.564Z,81.17
2023-04-01T00:15:32.877Z,81.23
2023-04-01T00:16:19.954Z,81.35
2023-04-01T00:16:54.458Z,81.38
2023-04-01T00:17:28.808Z,81.49
2023-04-01T00:18:02.407Z,81.51
2023-04-01T00:18:36.198Z,81.52
2023-04-01T00:19:09.909Z,81.45
2023-04-01T00:19:43.546Z,81.45
2023-04-01T00:20:17.352Z,81.42
2023-04-01T00:20:53.700Z,81.47
2023-04-01T00:21:27.617Z,81.45
2023-04-01T00:22:01.375Z,81.43
2023-04-01T00:22:35.277Z,81.42
2023-04-01T00:23:12.080Z,81.34
2023-04-01T00:23:45.690Z,81.34
2023-04-01T00:24:19.323Z,81.28
2023-04-01T00:24:53.493Z,81.27
2023-04-01T00:25:27.175Z,81.34
2023-04-01T00:26:03.105Z,81.23
2023-04-01T00:26:38.586Z,81.31
2023-04-01T00:27:12.212Z,81.35
2023-04-01T00:27:45.936Z,81.26
2023-04-01T00:28:21.243Z,81.00
2023-04-01T00:28:54.872Z,80.92
2023-04-01T00:29:31.787Z,80.95
2023-04-01T00:30:06.206Z,80.83
2023-04-01T00:30:42.385Z,80.90
2023-04-01T00:31:16.723Z,80.70
2023-04-01T00:31:50.496Z,80.49
2023-04-01T00:32:24.102Z,80.53
2023-04-01T00:32:58.581Z,80.59
2023-04-01T00:33:32.128Z,80.57
2023-04-01T00:34:05.999Z,80.60
2023-04-01T00:34:41.030Z,80.64
2023-04-01T00:35:14.747Z,80.78
2023-04-01T00:35:48.801Z,80.69
2023-04-01T00:36:23.086Z,80.55
2023-04-01T00:36:56.955Z,80.60
2023-04-01T00:37:30.615Z,80.51
2023-04-01T00:38:05.388Z,80.48
2023-04-01T00:38:39.915Z,80.50
2023-04-01T00:39:13.661Z,80.53
2023-04-01T00:39:47.307Z,80.47
2023-04-01T00:40:30.799Z,80.34
2023-04-01T00:41:05.823Z,80.32
2023-04-01T00:41:39.430Z,80.38
2023-04-01T00:42:13.562Z,80.43
2023-04-01T00:42:46.988Z,80.23
2023-04-01T00:43:22.313Z,79.92
2023-04-01T00:44:17.856Z,79.97
2023-04-01T00:44:54.161Z,80.25
2023-04-01T00:45:35.830Z,80.39
2023-04-01T00:46:09.595Z,80.46
2023-04-01T00:46:43.499Z,80.48
2023-04-01T00:47:17.518Z,80.39
2023-04-01T00:47:51.554Z,80.08
2023-04-01T00:48:30.574Z,80.08
2023-04-01T00:49:04.558Z,79.86
2023-04-01T00:49:42.105Z,79.98
2023-04-01T00:50:15.786Z,79.85
2023-04-01T00:50:53.939Z,79.88
2023-04-01T00:51:30.942Z,80.00
2023-04-01T00:52:07.250Z,80.04
2023-04-01T00:52:41.142Z,79.87
2023-04-01T00:53:16.079Z,80.10
2023-04-01T00:53:52.517Z,80.15
2023-04-01T00:54:29.125Z,80.21
2023-04-01T00:55:06.216Z,80.24
2023-04-01T00:55:47.045Z,80.21
2023-04-01T00:56:26.409Z,80.08
2023-04-01T00:57:05.623Z,80.02
2023-04-01T00:57:41.035Z,80.16
2023-04-01T00:58:18.500Z,80.09
2023-04-01T00:58:58.767Z,80.25
2023-04-01T00:59:40.553Z,79.96
2023-04-01T01:00:15.965Z,80.12
2023-04-01T01:00:52.494Z,80.05
2023-04-01T01:01:27.139Z,80.06
2023-04-01T01:02:04.162Z,80.13
2023-04-01T01:02:38.589Z,80.12
2023-04-01T01:03:13.967Z,80.06
2023-04-01T01:03:47.565Z,80.20
2023-04-01T01:04:29.181Z,79.90
2023-04-01T01:05:02.851Z,79.64
2023-04-01T01:06:05.761Z,79.99
2023-04-01T01:06:53.882Z,79.97
2023-04-01T01:07:40.447Z,80.06
2023-04-01T01:08:22.270Z,80.23
2023-04-01T01:09:19.928Z,80.23
2023-04-01T01:10:19.997Z,80.37
2023-04-01T01:10:53.690Z,80.50
2023-04-01T01:12:02.056Z,80.50
2023-04-01T01:13:20.181Z,80.58
2023-04-01T01:14:15.217Z,80.83
2023-04-01T01:15:12.634Z,80.74
2023-04-01T01:16:07.841Z,80.58
2023-04-01T01:16:47.598Z,80.36
2023-04-01T01:17:47.362Z,80.59
2023-04-01T01:18:28.673Z,80.80
2023-04-01T01:19:49.426Z,80.78
2023-04-01T01:20:50.510Z,80.81
2023-04-01T01:21:32.872Z,80.87
2023-04-01T01:22:12.293Z,80.88
2023-04-01T01:22:57.481Z,81.07
2023-04-01T01:23:49.080Z,80.86
2023-04-01T01:24:38.483Z,81.08
2023-04-01T01:25:22.620Z,80.93
2023-04-01T01:26:32.479Z,81.01
2023-04-01T01:27:10.858Z,81.34
2023-04-01T01:27:55.954Z,81.34
2023-04-01T01:28:45.080Z,81.26
2023-04-01T01:29:56.383Z,81.30
2023-04-01T01:30:38.021Z,81.48
2023-04-01T01:31:19.301Z,81.68
2023-04-01T01:32:11.031Z,81.88
2023-04-01T01:33:00.981Z,81.77
2023-04-01T01:33:42.769Z,81.91
2023-04-01T01:34:21.806Z,81.86
2023-04-01T01:34:58.958Z,81.81
2023-04-01T01:35:52.784Z,81.81
2023-04-01T01:36:30.478Z,81.85
2023-04-01T01:37:10.967Z,82.02
2023-04-01T01:37:47.300Z,81.87
2023-04-01T01:38:26.237Z,81.87
2023-04-01T01:39:07.597Z,81.93
2023-04-01T01:39:44.250Z,82.15
2023-04-01T01:40:18.542Z,81.86
2023-04-01T01:40:55.117Z,81.86
2023-04-01T01:41:30.627Z,81.84
2023-04-01T01:42:10.961Z,81.84
2023-04-01T01:42:52.431Z,81.96
2023-04-01T01:43:30.700Z,81.71
2023-04-01T01:44:07.402Z,81.85
2023-04-01T01:44:43.902Z,81.87
2023-04-01T01:45:25.227Z,81.85
2023-04-01T01:46:02.948Z,81.58
2023-04-01T01:46:39.523Z,81.73
2023-04-01T01:47:14.988Z,81.72
2023-04-01T01:47:52.100Z,81.80
2023-04-01T01:48:30.961Z,81.70
2023-04-01T01:50:46.140Z,81.98
2023-04-01T01:51:23.043Z,81.92
2023-04-01T01:51:57.016Z,81.92
2023-04-01T01:52:31.099Z,81.94
2023-04-01T01:53:12.107Z,81.89
2023-04-01T01:53:45.597Z,81.68
2023-04-01T01:54:20.669Z,81.83
2023-04-01T01:54:57.685Z,81.91
2023-04-01T01:55:37.342Z,81.96
2023-04-01T01:56:16.929Z,81.94
2023-04-01T01:56:57.325Z,82.13
2023-04-01T01:57:36.588Z,81.92
2023-04-01T01:58:17.905Z,82.05
2023-04-01T01:59:00.326Z,82.18
2023-04-01T01:59:37.322Z,82.16
2023-04-01T02:00:16.480Z,82.10
2023-04-01T02:00:54.584Z,81.95
2023-04-01T02:01:31.657Z,81.83
2023-04-01T02:02:12.452Z,81.94
2023-04-01T02:02:49.310Z,81.99
2023-04-01T02:03:26.635Z,82.00
2023-04-01T02:04:00.797Z,82.06
2023-04-01T02:04:38.289Z,82.15
2023-04-01T02:05:17.420Z,82.05
2023-04-01T02:05:54.103Z,82.07
2023-04-01T02:06:31.949Z,82.01
2023-04-01T02:07:15.042Z,82.00
2023-04-01T02:07:57.159Z,82.02
2023-04-01T02:08:42.207Z,81.96
2023-04-01T02:09:16.451Z,81.96
2023-04-01T02:09:51.765Z,82.09
2023-04-01T02:10:28.251Z,82.14
2023-04-01T02:11:08.949Z,81.91
2023-04-01T02:12:03.853Z,82.03
2023-04-01T02:12:40.398Z,81.90
2023-04-01T02:13:32.601Z,82.00
2023-04-01T02:14:12.919Z,82.10
2023-04-01T02:15:11.160Z,82.21
2023-04-01T02:15:49.198Z,82.22
2023-04-01T02:16:33.459Z,82.34
2023-04-01T02:17:12.425Z,82.18
2023-04-01T02:17:48.591Z,82.39
2023-04-01T02:18:23.363Z,82.15
2023-04-01T02:18:59.456Z,81.87
2023-04-01T02:19:39.012Z,82.04
2023-04-01T02:20:24.224Z,82.22
2023-04-01T02:21:00.609Z,82.36
2023-04-01T02:21:36.235Z,82.25
2023-04-01T02:22:14.658Z,82.43
2023-04-01T02:22:56.440Z,82.16
2023-04-01T02:23:30.457Z,82.14
2023-04-01T02:24:07.471Z,82.12
2023-04-01T02:24:43.101Z,81.94
2023-04-01T02:25:21.576Z,81.90
2023-04-01T02:25:55.965Z,81.63
2023-04-01T02:26:29.801Z,81.35
2023-04-01T02:27:05.291Z,81.38
2023-04-01T02:27:40.419Z,81.43
2023-04-01T02:28:18.404Z,81.62
2023-04-01T02:28:53.941Z,81.78
2023-04-01T02:29:28.377Z,81.67
2023-04-01T02:30:02.163Z,81.75
2023-04-01T02:30:39.877Z,81.75
2023-04-01T02:31:15.904Z,81.56
2023-04-01T02:31:51.795Z,81.56
2023-04-01T02:32:27.142Z,81.55
2023-04-01T02:33:01.653Z,81.51
2023-04-01T02:33:40.602Z,81.56
2023-04-01T02:34:14.976Z,81.38
2023-04-01T02:34:49.334Z,81.37
2023-04-01T02:35:23.580Z,81.24
2023-04-01T02:35:57.128Z,80.61
2023-04-01T02:36:33.708Z,80.23
2023-04-01T02:37:07.640Z,79.95
2023-04-01T02:37:43.575Z,80.13
2023-04-01T02:38:17.440Z,80.20
2023-04-01T02:38:52.304Z,79.90
2023-04-01T02:39:27.495Z,80.10
2023-04-01T02:40:07.738Z,80.26
2023-04-01T02:40:52.228Z,80.58
2023-04-01T02:41:26.016Z,80.76
2023-04-01T02:41:59.573Z,80.83
2023-04-01T02:42:33.673Z,80.74
2023-04-01T02:43:07.211Z,80.72
2023-04-01T02:43:40.785Z,80.92
2023-04-01T02:44:16.452Z,80.99
2023-04-01T02:44:50.331Z,81.04
2023-04-01T02:45:23.831Z,80.54
2023-04-01T02:45:57.506Z,80.52
2023-04-01T02:46:31.047Z,80.73
2023-04-01T02:47:05.187Z,80.80
2023-04-01T02:47:38.913Z,80.79
2023-04-01T02:48:21.376Z,80.77
2023-04-01T02:48:55.053Z,80.80
2023-04-01T02:49:28.774Z,80.74
2023-04-01T02:50:02.488Z,80.88
2023-04-01T02:50:36.465Z,80.89
2023-04-01T02:51:10.607Z,80.95
2023-04-01T02:51:44.258Z,80.97
2023-04-01T02:52:17.977Z,81.12
2023-04-01T02:52:51.494Z,81.15
2023-04-01T02:53:25.123Z,81.42
2023-04-01T02:53:59.912Z,81.17
2023-04-01T02:54:33.637Z,80.99
2023-04-01T02:55:07.906Z,81.03
2023-04-01T02:55:41.756Z,80.92
2023-04-01T02:56:15.592Z,80.84
2023-04-01T02:56:49.558Z,80.97
2023-04-01T02:57:23.741Z,80.97
2023-04-01T02:57:59.450Z,80.81
2023-04-01T02:58:33.123Z,80.74
2023-04-01T02:59:06.851Z,80.50
2023-04-01T02:59:40.676Z,80.44
2023-04-01T03:00:14.963Z,80.32
2023-04-01T03:00:48.661Z,80.25
2023-04-01T03:01:23.518Z,80.20
2023-04-01T03:01:57.018Z,80.08
2023-04-01T03:02:30.717Z,79.98
2023-04-01T03:03:04.743Z,80.06
2023-04-01T03:03:39.633Z,80.10
2023-04-01T03:04:13.179Z,79.93
2023-04-01T03:04:47.075Z,80.04
2023-04-01T03:05:21.135Z,80.16
2023-04-01T03:05:57.500Z,80.27
2023-04-01T03:06:31.448Z,80.20
2023-04-01T03:07:05.234Z,80.04
2023-04-01T03:07:38.733Z,80.26
2023-04-01T03:08:13.094Z,80.01
2023-04-01T03:08:48.226Z,80.04
2023-04-01T03:09:21.604Z,80.04
2023-04-01T03:09:55.166Z,79.96
2023-04-01T03:10:28.829Z,80.18
2023-04-01T03:11:02.529Z,80.35
2023-04-01T03:11:37.118Z,80.30
2023-04-01T03:12:10.865Z,80.45
2023-04-01T03:12:51.301Z,80.52
2023-04-01T03:13:24.920Z,80.57
2023-04-01T03:13:58.427Z,80.75
2023-04-01T03:14:32.244Z,80.82
2023-04-01T03:15:11.117Z,80.88
2023-04-01T03:15:46.139Z,80.95
2023-04-01T03:16:19.766Z,81.02
2023-04-01T03:16:53.282Z,81.08
2023-04-01T03:17:27.381Z,80.98
2023-04-01T03:18:01.158Z,81.03
2023-04-01T03:18:34.991Z,81.00
2023-04-01T03:19:09.222Z,81.07
2023-04-01T03:19:42.926Z,80.83
2023-04-01T03:20:17.015Z,80.85
2023-04-01T03:20:51.045Z,80.95
2023-04-01T03:21:25.963Z,81.01
2023-04-01T03:21:59.553Z,80.66
2023-04-01T03:22:33.223Z,80.85
2023-04-01T03:23:06.783Z,80.89
2023-04-01T03:23:40.406Z,80.95
2023-04-01T03:24:14.020Z,80.76
2023-04-01T03:24:48.156Z,80.91
2023-04-01T03:25:21.772Z,80.87
2023-04-01T03:25:55.307Z,80.98
2023-04-01T03:26:29.135Z,81.10
2023-04-01T03:27:02.711Z,81.25
2023-04-01T03:27:37.264Z,81.31
2023-04-01T03:28:11.598Z,81.39
2023-04-01T03:28:45.531Z,81.44
2023-04-01T03:29:19.184Z,81.40
2023-04-01T03:29:52.872Z,81.39
2023-04-01T03:30:27.008Z,81.46
2023-04-01T03:31:01.012Z,81.63
2023-04-01T03:31:35.877Z,81.78
2023-04-01T03:32:09.560Z,81.73
2023-04-01T03:32:43.088Z,81.79
2023-04-01T03:33:17.833Z,81.78
2023-04-01T03:33:51.453Z,81.82
2023-04-01T03:34:26.233Z,81.84
2023-04-01T03:34:59.895Z,81.72
2023-04-01T03:35:34.278Z,81.76
2023-04-01T03:36:08.474Z,81.69
2023-04-01T03:36:42.106Z,81.69
2023-04-01T03:37:15.824Z,81.81
2023-04-01T03:37:49.384Z,81.77
2023-04-01T03:38:23.424Z,81.78
2023-04-01T03:38:57.109Z,81.87
2023-04-01T03:39:34.401Z,81.53
2023-04-01T03:40:08.671Z,81.62
2023-04-01T03:40:44.072Z,81.63
2023-04-01T03:41:19.015Z,81.77
2023-04-01T03:41:52.578Z,81.83
2023-04-01T03:42:26.219Z,81.90
2023-04-01T03:42:59.814Z,82.00
2023-04-01T03:43:33.696Z,82.07
2023-04-01T03:44:07.889Z,81.92
2023-04-01T03:44:41.746Z,81.89
2023-04-01T03:45:17.494Z,81.98
2023-04-01T03:45:52.403Z,81.86
2023-04-01T03:46:26.107Z,81.95
2023-04-01T03:46:59.640Z,81.89
2023-04-01T03:47:33.368Z,81.86
2023-04-01T03:48:07.392Z,81.95
2023-04-01T03:48:41.196Z,81.74
2023-04-01T03:49:14.836Z,81.69
2023-04-01T03:49:51.186Z,81.88
2023-04-01T03:50:24.877Z,81.92
2023-04-01T03:50:58.549Z,82.03
2023-04-01T03:51:32.660Z,82.08
2023-04-01T03:52:10.864Z,82.21
2023-04-01T03:52:44.431Z,82.08
2023-04-01T03:53:18.757Z,82.08
2023-04-01T03:53:52.398Z,81.98
2023-04-01T03:54:26.087Z,82.04
2023-04-01T03:54:59.715Z,81.97
2023-04-01T03:55:33.374Z,82.08
2023-04-01T03:56:08.657Z,81.92
2023-04-01T03:56:45.150Z,81.95
2023-04-01T03:57:19.041Z,81.72
2023-04-01T03:57:52.670Z,82.00
2023-04-01T03:58:26.289Z,82.08
2023-04-01T03:59:00.238Z,82.13
2023-04-01T03:59:34.618Z,82.32
2023-04-01T04:00:09.995Z,82.44
2023-04-01T04:00:47.398Z,82.38
2023-04-01T04:01:23.620Z,82.48
2023-04-01T04:01:59.599Z,82.39
2023-04-01T04:02:33.268Z,82.42
2023-04-01T04:03:07.715Z,82.52
2023-04-01T04:03:42.305Z,82.53
2023-04-01T04:04:15.998Z,82.55
2023-04-01T04:04:49.641Z,82.41
2023-04-01T04:05:24.596Z,82.39
2023-04-01T04:05:58.349Z,82.35
2023-04-01T04:06:32.189Z,82.42
2023-04-01T04:07:05.795Z,82.37
2023-04-01T04:07:52.272Z,82.26
2023-04-01T04:08:25.980Z,82.33
2023-04-01T04:08:59.549Z,82.33
2023-04-01T04:09:34.505Z,82.34
2023-04-01T04:10:08.877Z,82.39
2023-04-01T04:10:42.965Z,82.30
2023-04-01T04:11:17.026Z,82.38
2023-04-01T04:11:51.346Z,82.20
2023-04-01T04:12:25.191Z,82.21
2023-04-01T04:12:59.728Z,82.02
2023-04-01T04:13:33.794Z,82.26
2023-04-01T04:14:08.305Z,82.28
2023-04-01T04:14:42.182Z,82.35
2023-04-01T04:15:16.452Z,82.32
2023-04-01T04:15:50.258Z,81.90
2023-04-01T04:16:24.037Z,81.95
2023-04-01T04:17:03.416Z,82.12
2023-04-01T04:17:39.881Z,82.37
2023-04-01T04:18:13.580Z,81.99
2023-04-01T04:18:47.418Z,82.08
2023-04-01T04:19:21.254Z,82.19
2023-04-01T04:19:56.725Z,82.36
2023-04-01T04:20:30.282Z,82.44
2023-04-01T04:21:04.795Z,82.36
2023-04-01T04:21:38.499Z,82.44
2023-04-01T04:22:12.313Z,82.40
2023-04-01T04:22:45.876Z,82.38
2023-04-01T04:23:19.640Z,82.28
2023-04-01T04:23:53.391Z,82.26
2023-04-01T04:24:30.127Z,82.15
2023-04-01T04:25:15.847Z,82.10
2023-04-01T04:26:00.665Z,82.26
2023-04-01T04:26:35.050Z,82.36
2023-04-01T04:27:10.452Z,82.47
2023-04-01T04:27:50.823Z,82.57
2023-04-01T04:28:24.886Z,82.54
2023-04-01T04:28:59.545Z,82.49
2023-04-01T04:29:33.261Z,82.56
2023-04-01T04:30:09.294Z,82.44
2023-04-01T04:30:42.946Z,82.41
2023-04-01T04:31:24.491Z,82.45
2023-04-01T04:31:58.693Z,82.20
2023-04-01T04:32:32.489Z,82.28
2023-04-01T04:33:06.644Z,82.51
2023-04-01T04:33:40.469Z,82.43
2023-04-01T04:34:14.203Z,82.51
2023-04-01T04:34:47.867Z,82.45
2023-04-01T04:35:21.689Z,82.40
2023-04-01T04:36:00.466Z,82.64
2023-04-01T04:36:34.922Z,82.54
2023-04-01T04:37:08.665Z,82.68
2023-04-01T04:37:43.054Z,82.62
2023-04-01T04:38:17.093Z,82.55
2023-04-01T04:38:50.923Z,82.63
2023-04-01T04:39:24.625Z,82.69
2023-04-01T04:39:58.340Z,82.49
2023-04-01T04:40:32.202Z,82.46
2023-04-01T04:41:13.991Z,82.54
2023-04-01T04:41:48.100Z,82.48
2023-04-01T04:42:21.664Z,82.45
2023-04-01T04:42:55.678Z,82.43
2023-04-01T04:43:29.266Z,81.95
2023-04-01T04:44:03.146Z,81.84
2023-04-01T04:44:36.987Z,81.89
2023-04-01T04:45:10.998Z,82.07
2023-04-01T04:45:45.804Z,82.14
2023-04-01T04:46:20.310Z,82.16
2023-04-01T04:46:55.138Z,81.90
2023-04-01T04:47:30.214Z,81.83
2023-04-01T04:48:04.026Z,81.95
2023-04-01T04:48:38.371Z,82.14
2023-04-01T04:49:12.147Z,81.93
2023-04-01T04:49:45.788Z,82.22
2023-04-01T04:50:19.735Z,82.18
2023-04-01T04:50:53.596Z,81.79
2023-04-01T04:51:29.081Z,81.91
2023-04-01T04:52:02.609Z,81.94
2023-04-01T04:52:36.305Z,81.69
2023-04-01T04:53:14.119Z,81.87
2023-04-01T04:53:49.576Z,81.89
2023-04-01T04:54:24.701Z,81.69
2023-04-01T04:55:05.736Z,82.11
2023-04-01T04:55:43.785Z,82.16
2023-04-01T04:56:33.860Z,82.18
2023-04-01T04:57:12.317Z,82.29
2023-04-01T04:57:51.504Z,82.17
2023-04-01T04:58:25.137Z,82.34
2023-04-01T04:58:59.527Z,82.38
2023-04-01T04:59:38.630Z,82.41
2023-04-01T05:00:19.651Z,82.27
2023-04-01T05:01:08.012Z,82.25
2023-04-01T05:01:41.884Z,82.18
2023-04-01T05:02:15.478Z,82.30
2023-04-01T05:02:49.309Z,82.46
2023-04-01T05:03:23.234Z,82.38
2023-04-01T05:03:56.920Z,82.33
2023-04-01T05:04:30.464Z,82.06
2023-04-01T05:05:05.414Z,82.25
2023-04-01T05:05:40.705Z,82.19
2023-04-01T05:06:15.961Z,82.26
2023-04-01T05:06:49.491Z,82.23
2023-04-01T05:07:24.138Z,82.46
2023-04-01T05:07:58.176Z,82.38
2023-04-01T05:08:31.894Z,82.41
2023-04-01T05:09:07.491Z,82.64
2023-04-01T05:09:41.152Z,82.73
2023-04-01T05:10:14.865Z,82.19
2023-04-01T05:10:48.784Z,82.23
2023-04-01T05:11:22.855Z,82.53
2023-04-01T05:11:56.554Z,82.66
2023-04-01T05:12:30.388Z,82.79
2023-04-01T05:13:08.431Z,82.93
2023-04-01T05:13:42.951Z,82.89
2023-04-01T05:14:17.423Z,82.80
2023-04-01T05:14:56.571Z,82.62
2023-04-01T05:15:31.197Z,82.61
2023-04-01T05:16:05.293Z,82.58
2023-04-01T05:16:39.010Z,82.37
2023-04-01T05:17:13.706Z,82.65
2023-04-01T05:17:47.566Z,82.50
2023-04-01T05:18:21.521Z,82.58
2023-04-01T05:18:55.284Z,82.47
2023-04-01T05:19:29.064Z,82.44
2023-04-01T05:20:05.932Z,82.40
2023-04-01T05:20:39.681Z,82.49
2023-04-01T05:21:14.857Z,82.49
2023-04-01T05:21:48.667Z,82.50
2023-04-01T05:22:22.828Z,82.52
2023-04-01T05:23:00.670Z,82.35
2023-04-01T05:23:34.539Z,82.39
2023-04-01T05:24:11.244Z,82.36
2023-04-01T05:24:45.296Z,82.31
2023-04-01T05:25:18.992Z,82.14
2023-04-01T05:25:54.082Z,82.24
2023-04-01T05:26:28.024Z,82.01
2023-04-01T05:27:01.660Z,82.12
2023-04-01T05:27:36.092Z,82.16
2023-04-01T05:28:10.226Z,82.18
2023-04-01T05:28:44.202Z,81.86
2023-04-01T05:29:17.840Z,81.68
2023-04-01T05:29:52.045Z,81.80
2023-04-01T05:30:55.102Z,81.96
2023-04-01T05:31:33.965Z,82.05
2023-04-01T05:32:07.785Z,82.19
2023-04-01T05:32:41.865Z,82.24
2023-04-01T05:33:15.995Z,82.23
2023-04-01T05:33:49.765Z,82.02
2023-04-01T05:34:23.437Z,82.06
2023-04-01T05:34:56.974Z,82.01
2023-04-01T05:35:30.915Z,81.95
2023-04-01T05:36:13.950Z,81.97
2023-04-01T05:36:47.639Z,81.76
2023-04-01T05:37:21.520Z,81.47
2023-04-01T05:37:55.131Z,80.82
2023-04-01T05:38:28.770Z,80.98
2023-04-01T05:39:02.739Z,81.06
2023-04-01T05:39:39.752Z,81.25
2023-04-01T05:40:13.820Z,81.40
2023-04-01T05:40:47.693Z,81.36
2023-04-01T05:41:21.971Z,81.31
2023-04-01T05:41:55.632Z,81.36
2023-04-01T05:42:29.418Z,80.86
2023-04-01T05:43:03.021Z,80.79
2023-04-01T05:43:41.674Z,80.86
2023-04-01T05:44:36.613Z,81.00
2023-04-01T05:45:10.892Z,81.03
2023-04-01T05:46:03.045Z,80.76
2023-04-01T05:46:44.839Z,80.83
2023-04-01T05:47:36.608Z,80.80
2023-04-01T05:48:10.541Z,80.69
2023-04-01T05:48:46.083Z,80.70
2023-04-01T05:49:19.887Z,80.82
2023-04-01T05:49:53.860Z,80.89
2023-04-01T05:50:27.796Z,80.67
2023-04-01T05:51:02.306Z,80.12
2023-04-01T05:51:38.494Z,79.53
2023-04-01T05:52:12.084Z,80.03
2023-04-01T05:52:46.174Z,80.30
2023-04-01T05:53:19.934Z,80.14
2023-04-01T05:53:53.934Z,80.32
2023-04-01T05:54:27.781Z,79.94
2023-04-01T05:55:01.598Z,80.27
2023-04-01T05:55:37.679Z,80.53
2023-04-01T05:56:11.534Z,80.52
2023-04-01T05:56:48.684Z,80.52
2023-04-01T05:57:22.821Z,80.63
2023-04-01T05:57:56.867Z,80.82
2023-04-01T05:58:30.871Z,80.84
2023-04-01T05:59:04.997Z,80.89
2023-04-01T05:59:38.752Z,80.86
2023-04-01T06:00:13.138Z,80.89
2023-04-01T06:00:47.943Z,80.79
2023-04-01T06:01:23.378Z,80.48
2023-04-01T06:01:58.327Z,80.28
2023-04-01T06:02:33.270Z,80.53
2023-04-01T06:03:07.146Z,80.50
2023-04-01T06:03:41.408Z,80.49
2023-04-01T06:04:17.449Z,80.27
2023-04-01T06:05:03.405Z,80.03
2023-04-01T06:05:42.662Z,80.08
2023-04-01T06:06:24.528Z,80.12
2023-04-01T06:06:58.356Z,79.93
2023-04-01T06:07:32.215Z,79.95
2023-04-01T06:08:19.813Z,79.92
2023-04-01T06:08:56.927Z,79.86
2023-04-01T06:09:31.591Z,79.80
2023-04-01T06:10:13.834Z,79.50
2023-04-01T06:11:00.932Z,79.28
2023-04-01T06:12:11.436Z,79.15
2023-04-01T06:13:13.696Z,79.52
2023-04-01T06:14:16.680Z,79.53
2023-04-01T06:15:05.100Z,79.32
2023-04-01T06:15:55.550Z,79.18
2023-04-01T06:16:47.821Z,79.35
2023-04-01T06:17:31.598Z,79.67
2023-04-01T06:18:35.799Z,79.81
2023-04-01T06:19:27.615Z,79.96
2023-04-01T06:20:04.563Z,79.68
2023-04-01T06:21:04.856Z,79.74
2023-04-01T06:22:00.950Z,80.23
2023-04-01T06:23:05.812Z,80.28
2023-04-01T06:24:04.197Z,80.53
2023-04-01T06:24:46.742Z,80.75
2023-04-01T06:25:30.221Z,80.60
2023-04-01T06:26:09.704Z,80.33
2023-04-01T06:27:10.926Z,80.32
2023-04-01T06:27:57.393Z,80.33
2023-04-01T06:28:42.733Z,80.27
2023-04-01T06:29:25.419Z,80.62
2023-04-01T06:30:35.659Z,80.80
2023-04-01T06:31:30.792Z,80.68
2023-04-01T06:32:15.292Z,80.57
2023-04-01T06:33:07.956Z,80.54
2023-04-01T06:34:19.082Z,80.70
2023-04-01T06:35:01.551Z,80.99
2023-04-01T06:35:50.788Z,80.65
2023-04-01T06:37:03.269Z,80.46
2023-04-01T06:38:28.003Z,80.55
2023-04-01T06:39:26.610Z,80.04
2023-04-01T06:40:30.837Z,79.22
2023-04-01T06:41:23.176Z,79.50
2023-04-01T06:42:18.612Z,79.45
2023-04-01T06:43:08.050Z,79.60
2023-04-01T06:44:20.732Z,79.60
2023-04-01T06:45:47.886Z,79.66
2023-04-01T06:46:48.060Z,79.67
2023-04-01T06:48:13.418Z,79.71
2023-04-01T06:49:55.157Z,79.62
2023-04-01T06:50:59.153Z,79.79
2023-04-01T06:52:00.154Z,79.59
2023-04-01T06:52:58.941Z,78.72
2023-04-01T06:54:15.556Z,78.76
2023-04-01T06:55:20.659Z,79.19
2023-04-01T06:56:22.176Z,79.82
2023-04-01T06:57:29.769Z,79.93
2023-04-01T06:58:12.224Z,79.81
2023-04-01T06:58:51.737Z,79.76
2023-04-01T06:59:31.492Z,79.62
2023-04-01T07:00:16.015Z,79.95
2023-04-01T07:00:53.659Z,79.85
2023-04-01T07:01:38.395Z,79.83
2023-04-01T07:02:12.056Z,80.23
2023-04-01T07:03:00.725Z,80.21
2023-04-01T07:03:36.679Z,80.23
2023-04-01T07:04:16.925Z,80.37
2023-04-01T07:04:55.082Z,80.40
2023-04-01T07:05:32.382Z,80.41
2023-04-01T07:06:10.597Z,80.25
2023-04-01T07:06:53.054Z,79.94
2023-04-01T07:07:46.458Z,79.81
2023-04-01T07:08:26.906Z,80.09
2023-04-01T07:09:07.258Z,80.01
2023-04-01T07:10:03.632Z,79.88
2023-04-01T07:10:52.764Z,79.87
2023-04-01T07:11:44.732Z,80.01
2023-04-01T07:12:59.174Z,80.27
2023-04-01T07:14:05.384Z,80.07
2023-04-01T07:14:42.718Z,80.05
2023-04-01T07:15:36.502Z,79.92
2023-04-01T07:16:27.331Z,79.81
2023-04-01T07:17:10.191Z,80.04
2023-04-01T07:17:47.116Z,80.33
2023-04-01T07:18:29.807Z,80.31
2023-04-01T07:19:21.591Z,79.75
2023-04-01T07:20:20.674Z,79.91
2023-04-01T07:20:55.570Z,80.08
2023-04-01T07:21:56.873Z,80.16
2023-04-01T07:22:42.263Z,80.01
2023-04-01T07:23:38.656Z,79.80
2023-04-01T07:24:33.356Z,79.87
2023-04-01T07:25:32.289Z,79.89
2023-04-01T07:26:26.163Z,80.20
2023-04-01T07:27:03.282Z,80.29
2023-04-01T07:27:44.107Z,80.12
2023-04-01T07:28:24.376Z,79.75
2023-04-01T07:29:13.077Z,79.25
2023-04-01T07:30:01.491Z,79.18
2023-04-01T07:30:58.468Z,79.33
2023-04-01T07:31:42.416Z,79.60
2023-04-01T07:32:25.009Z,79.91
2023-04-01T07:33:13.408Z,79.51
2023-04-01T07:33:55.453Z,79.32
2023-04-01T07:34:36.991Z,79.03
2023-04-01T07:35:17.220Z,77.85
2023-04-01T07:35:57.008Z,77.46
2023-04-01T07:36:45.484Z,77.39
2023-04-01T07:37:27.623Z,77.87
2023-04-01T07:38:32.606Z,78.21
2023-04-01T07:39:36.154Z,78.57
2023-04-01T07:40:40.840Z,78.96
2023-04-01T07:41:50.570Z,78.73
2023-04-01T07:42:32.609Z,78.63
2023-04-01T07:43:43.201Z,78.59
2023-04-01T07:44:43.416Z,78.18
2023-04-01T07:45:22.681Z,76.97
2023-04-01T07:46:23.218Z,76.00
2023-04-01T07:47:23.963Z,76.72
2023-04-01T07:48:08.382Z,76.72
2023-04-01T07:48:53.947Z,75.82
2023-04-01T07:50:16.312Z,75.90
2023-04-01T07:51:03.183Z,76.55
2023-04-01T07:51:57.141Z,76.67
2023-04-01T07:52:37.933Z,76.23
2023-04-01T07:53:24.123Z,75.80
2023-04-01T07:54:16.725Z,75.71
2023-04-01T07:54:59.282Z,75.37
2023-04-01T07:55:38.983Z,74.85
2023-04-01T07:56:21.237Z,74.91
2023-04-01T07:57:13.371Z,74.88
2023-04-01T07:57:52.864Z,74.73
2023-04-01T07:58:47.954Z,75.03
2023-04-01T07:59:45.385Z,75.20
2023-04-01T08:00:58.265Z,75.11
2023-04-01T08:01:39.429Z,75.01
2023-04-01T08:02:47.083Z,74.91
2023-04-01T08:03:27.954Z,75.31
2023-04-01T08:04:20.382Z,75.14
2023-04-01T08:05:12.474Z,75.19
2023-04-01T08:05:58.202Z,75.68
2023-04-01T08:06:58.498Z,75.52
2023-04-01T08:07:45.637Z,75.29
2023-04-01T08:08:48.817Z,75.53
2023-04-01T08:10:35.699Z,75.84
2023-04-01T08:11:57.441Z,76.67
2023-04-01T08:12:58.827Z,76.28
2023-04-01T08:14:00.462Z,75.74
2023-04-01T08:15:01.210Z,75.07
2023-04-01T08:16:29.935Z,74.71
2023-04-01T08:17:42.068Z,75.08
2023-04-01T08:18:52.195Z,75.49
2023-04-01T08:19:59.316Z,76.00
2023-04-01T08:20:34.725Z,76.09
2023-04-01T08:21:40.679Z,76.35
2023-04-01T08:22:30.976Z,75.71
2023-04-01T08:23:20.818Z,75.96
2023-04-01T08:24:29.723Z,76.47
2023-04-01T08:25:15.263Z,76.47
2023-04-01T08:26:13.292Z,76.37
2023-04-01T08:26:55.639Z,76.30
2023-04-01T08:27:41.239Z,76.46
2023-04-01T08:28:23.239Z,76.35
2023-04-01T08:29:22.207Z,76.38
2023-04-01T08:30:05.013Z,76.10
2023-04-01T08:31:21.223Z,75.80
2023-04-01T08:32:20.850Z,75.56
2023-04-01T08:32:59.572Z,75.18
2023-04-01T08:33:36.180Z,75.35
2023-04-01T08:34:19.594Z,75.27
2023-04-01T08:35:08.899Z,75.23
2023-04-01T08:35:53.271Z,75.15
2023-04-01T08:36:34.149Z,75.30
2023-04-01T08:37:24.671Z,75.15
2023-04-01T08:38:07.631Z,75.28
2023-04-01T08:39:01.189Z,74.67
2023-04-01T08:39:57.293Z,74.65
2023-04-01T08:40:51.830Z,74.96